sensor_id;sensor_type;location;lat;lon;timestamp;P1;durP1;ratioP1;P2;durP2;ratioP2
17510;SDS011;8873;48.818;9.422;2023-02-13T00:02:09;36.93;;;15.23;;
17510;SDS011;8873;48.818;9.422;2023-02-13T00:04:37;45.33;;;16.60;;
17510;SDS011;8873;48.818;9.422;2023-02-13T00:07:07;37.73;;;15.17;;
17510;SDS011;8873;48.818;9.422;2023-02-13T00:09:37;44.20;;;17.30;;
17510;SDS011;8873;48.818;9.422;2023-02-13T00:12:06;37.00;;;14.70;;
17510;SDS011;8873;48.818;9.422;2023-02-13T00:14:34;41.70;;;15.20;;
17510;SDS011;8873;48.818;9.422;2023-02-13T00:17:02;39.73;;;15.60;;
17510;SDS011;8873;48.818;9.422;2023-02-13T00:19:31;33.57;;;14.73;;
17510;SDS011;8873;48.818;9.422;2023-02-13T00:21:59;37.80;;;14.33;;
17510;SDS011;8873;48.818;9.422;2023-02-13T00:24:30;41.33;;;15.63;;
17510;SDS011;8873;48.818;9.422;2023-02-13T00:26:58;35.80;;;16.13;;
17510;SDS011;8873;48.818;9.422;2023-02-13T00:29:29;42.40;;;14.93;;
17510;SDS011;8873;48.818;9.422;2023-02-13T00:31:57;42.53;;;16.37;;
17510;SDS011;8873;48.818;9.422;2023-02-13T00:34:25;38.03;;;14.83;;
17510;SDS011;8873;48.818;9.422;2023-02-13T00:36:54;42.73;;;16.03;;
17510;SDS011;8873;48.818;9.422;2023-02-13T00:39:22;38.90;;;14.90;;
17510;SDS011;8873;48.818;9.422;2023-02-13T00:41:50;32.77;;;14.57;;
17510;SDS011;8873;48.818;9.422;2023-02-13T00:44:21;38.57;;;14.83;;
17510;SDS011;8873;48.818;9.422;2023-02-13T00:46:48;37.17;;;15.30;;
17510;SDS011;8873;48.818;9.422;2023-02-13T00:49:19;40.03;;;15.00;;
17510;SDS011;8873;48.818;9.422;2023-02-13T00:51:46;30.87;;;13.97;;
17510;SDS011;8873;48.818;9.422;2023-02-13T00:54:15;44.57;;;15.37;;
17510;SDS011;8873;48.818;9.422;2023-02-13T00:56:45;41.00;;;15.60;;
17510;SDS011;8873;48.818;9.422;2023-02-13T00:59:13;40.20;;;15.23;;
17510;SDS011;8873;48.818;9.422;2023-02-13T01:01:45;45.20;;;15.50;;
17510;SDS011;8873;48.818;9.422;2023-02-13T01:04:12;40.83;;;15.80;;
17510;SDS011;8873;48.818;9.422;2023-02-13T01:06:40;46.07;;;15.87;;
17510;SDS011;8873;48.818;9.422;2023-02-13T01:09:10;43.00;;;14.77;;
17510;SDS011;8873;48.818;9.422;2023-02-13T01:11:39;38.17;;;15.37;;
17510;SDS011;8873;48.818;9.422;2023-02-13T01:14:09;38.43;;;14.67;;
17510;SDS011;8873;48.818;9.422;2023-02-13T01:16:37;40.20;;;16.13;;
17510;SDS011;8873;48.818;9.422;2023-02-13T01:19:05;39.93;;;15.80;;
17510;SDS011;8873;48.818;9.422;2023-02-13T01:21:32;49.67;;;15.70;;
17510;SDS011;8873;48.818;9.422;2023-02-13T01:24:01;41.97;;;15.87;;
17510;SDS011;8873;48.818;9.422;2023-02-13T01:26:29;41.23;;;15.23;;
17510;SDS011;8873;48.818;9.422;2023-02-13T01:28:58;44.73;;;16.43;;
17510;SDS011;8873;48.818;9.422;2023-02-13T01:31:27;44.63;;;16.23;;
17510;SDS011;8873;48.818;9.422;2023-02-13T01:33:57;53.03;;;16.93;;
17510;SDS011;8873;48.818;9.422;2023-02-13T01:36:24;42.17;;;15.20;;
17510;SDS011;8873;48.818;9.422;2023-02-13T01:38:53;44.83;;;15.60;;
17510;SDS011;8873;48.818;9.422;2023-02-13T01:41:23;50.17;;;15.93;;
17510;SDS011;8873;48.818;9.422;2023-02-13T01:43:52;48.03;;;16.07;;
17510;SDS011;8873;48.818;9.422;2023-02-13T01:46:23;47.53;;;16.03;;
17510;SDS011;8873;48.818;9.422;2023-02-13T01:48:53;39.93;;;15.83;;
17510;SDS011;8873;48.818;9.422;2023-02-13T01:51:23;44.13;;;15.37;;
17510;SDS011;8873;48.818;9.422;2023-02-13T01:53:52;42.40;;;15.23;;
17510;SDS011;8873;48.818;9.422;2023-02-13T01:56:23;48.30;;;15.77;;
17510;SDS011;8873;48.818;9.422;2023-02-13T01:58:53;44.43;;;16.67;;
17510;SDS011;8873;48.818;9.422;2023-02-13T02:01:23;40.57;;;14.97;;
17510;SDS011;8873;48.818;9.422;2023-02-13T02:03:52;52.43;;;15.73;;
17510;SDS011;8873;48.818;9.422;2023-02-13T02:06:22;46.73;;;16.70;;
17510;SDS011;8873;48.818;9.422;2023-02-13T02:08:52;50.77;;;16.80;;
17510;SDS011;8873;48.818;9.422;2023-02-13T02:11:23;53.77;;;17.17;;
17510;SDS011;8873;48.818;9.422;2023-02-13T02:13:52;53.20;;;17.53;;
17510;SDS011;8873;48.818;9.422;2023-02-13T02:16:23;50.50;;;16.60;;
17510;SDS011;8873;48.818;9.422;2023-02-13T02:19:01;48.80;;;15.63;;
17510;SDS011;8873;48.818;9.422;2023-02-13T02:21:45;44.80;;;15.97;;
17510;SDS011;8873;48.818;9.422;2023-02-13T02:27:03;47.97;;;16.13;;
17510;SDS011;8873;48.818;9.422;2023-02-13T02:32:27;61.80;;;18.30;;
17510;SDS011;8873;48.818;9.422;2023-02-13T02:35:01;50.70;;;16.57;;
17510;SDS011;8873;48.818;9.422;2023-02-13T02:37:38;50.43;;;16.37;;
17510;SDS011;8873;48.818;9.422;2023-02-13T02:40:12;44.80;;;16.53;;
17510;SDS011;8873;48.818;9.422;2023-02-13T02:42:49;42.63;;;15.93;;
17510;SDS011;8873;48.818;9.422;2023-02-13T02:45:21;45.73;;;17.07;;
17510;SDS011;8873;48.818;9.422;2023-02-13T02:47:53;46.43;;;16.00;;
17510;SDS011;8873;48.818;9.422;2023-02-13T02:50:40;47.60;;;17.17;;
17510;SDS011;8873;48.818;9.422;2023-02-13T02:53:14;48.33;;;16.70;;
17510;SDS011;8873;48.818;9.422;2023-02-13T02:55:45;45.23;;;17.17;;
17510;SDS011;8873;48.818;9.422;2023-02-13T02:58:19;45.80;;;16.73;;
17510;SDS011;8873;48.818;9.422;2023-02-13T03:01:05;42.97;;;15.13;;
17510;SDS011;8873;48.818;9.422;2023-02-13T03:03:53;44.30;;;15.97;;
17510;SDS011;8873;48.818;9.422;2023-02-13T03:06:42;47.97;;;16.40;;
17510;SDS011;8873;48.818;9.422;2023-02-13T03:09:11;40.90;;;15.40;;
17510;SDS011;8873;48.818;9.422;2023-02-13T03:12:00;44.03;;;15.20;;
17510;SDS011;8873;48.818;9.422;2023-02-13T03:14:46;44.40;;;15.77;;
17510;SDS011;8873;48.818;9.422;2023-02-13T03:17:16;51.50;;;17.03;;
17510;SDS011;8873;48.818;9.422;2023-02-13T03:20:12;47.47;;;15.63;;
17510;SDS011;8873;48.818;9.422;2023-02-13T03:23:03;50.73;;;16.17;;
17510;SDS011;8873;48.818;9.422;2023-02-13T03:25:35;42.10;;;16.33;;
17510;SDS011;8873;48.818;9.422;2023-02-13T03:28:05;43.73;;;15.77;;
17510;SDS011;8873;48.818;9.422;2023-02-13T03:30:57;47.30;;;16.80;;
17510;SDS011;8873;48.818;9.422;2023-02-13T03:33:33;49.10;;;16.03;;
17510;SDS011;8873;48.818;9.422;2023-02-13T03:36:09;40.23;;;16.67;;
17510;SDS011;8873;48.818;9.422;2023-02-13T03:38:58;46.27;;;15.77;;
17510;SDS011;8873;48.818;9.422;2023-02-13T03:41:30;41.13;;;16.00;;
17510;SDS011;8873;48.818;9.422;2023-02-13T03:44:03;48.00;;;16.87;;
17510;SDS011;8873;48.818;9.422;2023-02-13T03:46:36;41.77;;;14.50;;
17510;SDS011;8873;48.818;9.422;2023-02-13T03:49:05;43.20;;;16.00;;
17510;SDS011;8873;48.818;9.422;2023-02-13T03:51:53;41.67;;;16.50;;
17510;SDS011;8873;48.818;9.422;2023-02-13T03:54:37;42.63;;;16.07;;
17510;SDS011;8873;48.818;9.422;2023-02-13T03:57:25;45.30;;;16.30;;
17510;SDS011;8873;48.818;9.422;2023-02-13T04:00:12;42.47;;;16.00;;
17510;SDS011;8873;48.818;9.422;2023-02-13T04:02:42;38.50;;;15.63;;
17510;SDS011;8873;48.818;9.422;2023-02-13T04:05:12;44.30;;;15.83;;
17510;SDS011;8873;48.818;9.422;2023-02-13T04:07:43;54.47;;;16.27;;
17510;SDS011;8873;48.818;9.422;2023-02-13T04:10:13;40.27;;;15.90;;
17510;SDS011;8873;48.818;9.422;2023-02-13T04:12:42;44.87;;;15.47;;
17510;SDS011;8873;48.818;9.422;2023-02-13T04:15:13;45.07;;;16.77;;
17510;SDS011;8873;48.818;9.422;2023-02-13T04:17:42;52.47;;;16.87;;
17510;SDS011;8873;48.818;9.422;2023-02-13T04:20:15;51.47;;;17.50;;
17510;SDS011;8873;48.818;9.422;2023-02-13T04:22:47;49.43;;;16.50;;
17510;SDS011;8873;48.818;9.422;2023-02-13T04:25:15;51.93;;;16.87;;
17510;SDS011;8873;48.818;9.422;2023-02-13T04:27:44;39.07;;;15.17;;
17510;SDS011;8873;48.818;9.422;2023-02-13T04:30:12;47.77;;;15.97;;
17510;SDS011;8873;48.818;9.422;2023-02-13T04:32:43;45.30;;;16.13;;
17510;SDS011;8873;48.818;9.422;2023-02-13T04:35:12;57.20;;;17.43;;
17510;SDS011;8873;48.818;9.422;2023-02-13T04:37:41;46.57;;;16.57;;
17510;SDS011;8873;48.818;9.422;2023-02-13T04:40:11;52.57;;;16.67;;
17510;SDS011;8873;48.818;9.422;2023-02-13T04:42:39;44.60;;;16.07;;
17510;SDS011;8873;48.818;9.422;2023-02-13T04:45:09;46.53;;;15.97;;
17510;SDS011;8873;48.818;9.422;2023-02-13T04:47:40;57.33;;;18.00;;
17510;SDS011;8873;48.818;9.422;2023-02-13T04:50:15;59.10;;;19.87;;
17510;SDS011;8873;48.818;9.422;2023-02-13T04:52:43;47.63;;;17.93;;
17510;SDS011;8873;48.818;9.422;2023-02-13T04:55:15;52.83;;;17.97;;
17510;SDS011;8873;48.818;9.422;2023-02-13T04:57:42;64.20;;;19.53;;
17510;SDS011;8873;48.818;9.422;2023-02-13T05:00:10;51.87;;;19.23;;
17510;SDS011;8873;48.818;9.422;2023-02-13T05:02:41;55.10;;;18.23;;
17510;SDS011;8873;48.818;9.422;2023-02-13T05:05:08;49.43;;;18.30;;
17510;SDS011;8873;48.818;9.422;2023-02-13T05:07:36;52.03;;;17.10;;
17510;SDS011;8873;48.818;9.422;2023-02-13T05:10:06;56.33;;;17.87;;
17510;SDS011;8873;48.818;9.422;2023-02-13T05:12:36;62.30;;;19.60;;
17510;SDS011;8873;48.818;9.422;2023-02-13T05:15:04;57.30;;;17.90;;
17510;SDS011;8873;48.818;9.422;2023-02-13T05:17:32;55.27;;;18.47;;
17510;SDS011;8873;48.818;9.422;2023-02-13T05:20:02;51.40;;;17.10;;
17510;SDS011;8873;48.818;9.422;2023-02-13T05:22:29;57.07;;;18.30;;
17510;SDS011;8873;48.818;9.422;2023-02-13T05:25:14;63.23;;;19.10;;
17510;SDS011;8873;48.818;9.422;2023-02-13T05:27:47;59.87;;;18.20;;
17510;SDS011;8873;48.818;9.422;2023-02-13T05:30:15;64.10;;;19.27;;
17510;SDS011;8873;48.818;9.422;2023-02-13T05:32:42;68.90;;;20.33;;
17510;SDS011;8873;48.818;9.422;2023-02-13T05:35:10;57.23;;;17.87;;
17510;SDS011;8873;48.818;9.422;2023-02-13T05:37:37;59.03;;;19.40;;
17510;SDS011;8873;48.818;9.422;2023-02-13T05:40:08;64.33;;;19.87;;
17510;SDS011;8873;48.818;9.422;2023-02-13T05:42:50;76.23;;;20.47;;
17510;SDS011;8873;48.818;9.422;2023-02-13T05:45:24;76.73;;;20.30;;
17510;SDS011;8873;48.818;9.422;2023-02-13T05:47:52;74.57;;;20.63;;
17510;SDS011;8873;48.818;9.422;2023-02-13T05:50:19;83.37;;;20.70;;
17510;SDS011;8873;48.818;9.422;2023-02-13T05:52:48;76.67;;;20.93;;
17510;SDS011;8873;48.818;9.422;2023-02-13T05:55:21;77.43;;;20.90;;
17510;SDS011;8873;48.818;9.422;2023-02-13T05:57:53;72.37;;;21.37;;
17510;SDS011;8873;48.818;9.422;2023-02-13T06:00:21;91.27;;;20.83;;
17510;SDS011;8873;48.818;9.422;2023-02-13T06:02:50;73.50;;;20.33;;
17510;SDS011;8873;48.818;9.422;2023-02-13T06:05:18;88.57;;;20.03;;
17510;SDS011;8873;48.818;9.422;2023-02-13T06:07:48;85.27;;;21.90;;
17510;SDS011;8873;48.818;9.422;2023-02-13T06:10:16;80.40;;;20.23;;
17510;SDS011;8873;48.818;9.422;2023-02-13T06:12:43;75.33;;;19.77;;
17510;SDS011;8873;48.818;9.422;2023-02-13T06:15:15;99.00;;;21.03;;
17510;SDS011;8873;48.818;9.422;2023-02-13T06:17:44;88.13;;;22.90;;
17510;SDS011;8873;48.818;9.422;2023-02-13T06:20:12;90.87;;;22.90;;
17510;SDS011;8873;48.818;9.422;2023-02-13T06:22:40;77.80;;;21.10;;
17510;SDS011;8873;48.818;9.422;2023-02-13T06:25:07;88.50;;;21.97;;
17510;SDS011;8873;48.818;9.422;2023-02-13T06:27:35;68.03;;;19.67;;
17510;SDS011;8873;48.818;9.422;2023-02-13T06:30:03;64.20;;;19.37;;
17510;SDS011;8873;48.818;9.422;2023-02-13T06:32:32;79.00;;;20.77;;
17510;SDS011;8873;48.818;9.422;2023-02-13T06:35:00;69.63;;;19.37;;
17510;SDS011;8873;48.818;9.422;2023-02-13T06:37:31;71.57;;;19.90;;
17510;SDS011;8873;48.818;9.422;2023-02-13T06:39:58;79.60;;;21.27;;
17510;SDS011;8873;48.818;9.422;2023-02-13T06:42:26;80.10;;;21.50;;
17510;SDS011;8873;48.818;9.422;2023-02-13T06:44:59;78.63;;;20.17;;
17510;SDS011;8873;48.818;9.422;2023-02-13T06:47:27;71.17;;;21.60;;
17510;SDS011;8873;48.818;9.422;2023-02-13T06:49:56;73.27;;;22.10;;
17510;SDS011;8873;48.818;9.422;2023-02-13T06:52:24;77.27;;;21.53;;
17510;SDS011;8873;48.818;9.422;2023-02-13T06:54:54;62.43;;;19.87;;
17510;SDS011;8873;48.818;9.422;2023-02-13T06:57:22;75.87;;;21.03;;
17510;SDS011;8873;48.818;9.422;2023-02-13T06:59:49;68.90;;;20.93;;
17510;SDS011;8873;48.818;9.422;2023-02-13T07:02:17;81.77;;;22.73;;
17510;SDS011;8873;48.818;9.422;2023-02-13T07:04:44;76.60;;;21.43;;
17510;SDS011;8873;48.818;9.422;2023-02-13T07:07:13;73.03;;;21.23;;
17510;SDS011;8873;48.818;9.422;2023-02-13T07:09:40;84.30;;;19.63;;
17510;SDS011;8873;48.818;9.422;2023-02-13T07:12:08;73.57;;;22.70;;
17510;SDS011;8873;48.818;9.422;2023-02-13T07:14:36;68.23;;;20.93;;
17510;SDS011;8873;48.818;9.422;2023-02-13T07:17:03;87.87;;;21.67;;
17510;SDS011;8873;48.818;9.422;2023-02-13T07:19:31;84.23;;;22.17;;
17510;SDS011;8873;48.818;9.422;2023-02-13T07:21:59;75.43;;;22.20;;
17510;SDS011;8873;48.818;9.422;2023-02-13T07:24:31;62.70;;;20.53;;
17510;SDS011;8873;48.818;9.422;2023-02-13T07:27:00;76.10;;;21.17;;
17510;SDS011;8873;48.818;9.422;2023-02-13T07:29:28;77.23;;;22.97;;
17510;SDS011;8873;48.818;9.422;2023-02-13T07:31:55;81.93;;;23.37;;
17510;SDS011;8873;48.818;9.422;2023-02-13T07:34:23;96.63;;;29.90;;
17510;SDS011;8873;48.818;9.422;2023-02-13T07:36:51;101.03;;;30.53;;
17510;SDS011;8873;48.818;9.422;2023-02-13T07:39:21;80.23;;;26.73;;
17510;SDS011;8873;48.818;9.422;2023-02-13T07:41:50;77.07;;;24.33;;
17510;SDS011;8873;48.818;9.422;2023-02-13T07:44:18;76.57;;;23.60;;
17510;SDS011;8873;48.818;9.422;2023-02-13T07:46:46;63.03;;;21.23;;
17510;SDS011;8873;48.818;9.422;2023-02-13T07:49:14;80.97;;;24.47;;
17510;SDS011;8873;48.818;9.422;2023-02-13T07:51:41;86.70;;;25.30;;
17510;SDS011;8873;48.818;9.422;2023-02-13T07:54:09;80.53;;;24.90;;
17510;SDS011;8873;48.818;9.422;2023-02-13T07:56:36;84.77;;;25.20;;
17510;SDS011;8873;48.818;9.422;2023-02-13T07:59:09;69.90;;;23.90;;
17510;SDS011;8873;48.818;9.422;2023-02-13T08:01:37;87.40;;;26.77;;
17510;SDS011;8873;48.818;9.422;2023-02-13T08:04:04;87.07;;;30.67;;
17510;SDS011;8873;48.818;9.422;2023-02-13T08:06:34;83.73;;;25.90;;
17510;SDS011;8873;48.818;9.422;2023-02-13T08:09:01;72.50;;;23.60;;
17510;SDS011;8873;48.818;9.422;2023-02-13T08:11:46;70.73;;;23.13;;
17510;SDS011;8873;48.818;9.422;2023-02-13T08:14:23;78.37;;;24.27;;
17510;SDS011;8873;48.818;9.422;2023-02-13T08:16:51;68.60;;;23.00;;
17510;SDS011;8873;48.818;9.422;2023-02-13T08:19:22;75.00;;;25.77;;
17510;SDS011;8873;48.818;9.422;2023-02-13T08:21:50;77.90;;;24.13;;
17510;SDS011;8873;48.818;9.422;2023-02-13T08:24:20;83.87;;;24.73;;
17510;SDS011;8873;48.818;9.422;2023-02-13T08:26:48;84.40;;;23.27;;
17510;SDS011;8873;48.818;9.422;2023-02-13T08:29:16;72.03;;;24.37;;
17510;SDS011;8873;48.818;9.422;2023-02-13T08:31:46;72.30;;;23.63;;
17510;SDS011;8873;48.818;9.422;2023-02-13T08:34:19;85.47;;;24.30;;
17510;SDS011;8873;48.818;9.422;2023-02-13T08:36:47;78.13;;;23.97;;
17510;SDS011;8873;48.818;9.422;2023-02-13T08:39:15;79.90;;;24.23;;
17510;SDS011;8873;48.818;9.422;2023-02-13T08:42:00;71.53;;;23.63;;
17510;SDS011;8873;48.818;9.422;2023-02-13T08:44:27;71.97;;;23.30;;
17510;SDS011;8873;48.818;9.422;2023-02-13T08:46:56;68.80;;;23.63;;
17510;SDS011;8873;48.818;9.422;2023-02-13T08:49:24;69.67;;;22.80;;
17510;SDS011;8873;48.818;9.422;2023-02-13T08:51:53;70.40;;;23.50;;
17510;SDS011;8873;48.818;9.422;2023-02-13T08:54:20;63.70;;;22.47;;
17510;SDS011;8873;48.818;9.422;2023-02-13T08:56:57;62.47;;;21.80;;
17510;SDS011;8873;48.818;9.422;2023-02-13T08:59:24;57.03;;;20.40;;
17510;SDS011;8873;48.818;9.422;2023-02-13T09:01:55;59.83;;;21.20;;
17510;SDS011;8873;48.818;9.422;2023-02-13T09:04:24;55.37;;;20.70;;
17510;SDS011;8873;48.818;9.422;2023-02-13T09:06:51;51.43;;;19.43;;
17510;SDS011;8873;48.818;9.422;2023-02-13T09:09:19;47.03;;;17.57;;
17510;SDS011;8873;48.818;9.422;2023-02-13T09:11:46;42.37;;;17.53;;
17510;SDS011;8873;48.818;9.422;2023-02-13T09:14:25;46.70;;;17.27;;
17510;SDS011;8873;48.818;9.422;2023-02-13T09:16:52;53.97;;;18.27;;
17510;SDS011;8873;48.818;9.422;2023-02-13T09:19:20;43.77;;;17.00;;
17510;SDS011;8873;48.818;9.422;2023-02-13T09:21:49;54.83;;;16.97;;
17510;SDS011;8873;48.818;9.422;2023-02-13T09:24:17;43.07;;;15.73;;
17510;SDS011;8873;48.818;9.422;2023-02-13T09:26:47;37.37;;;15.37;;
17510;SDS011;8873;48.818;9.422;2023-02-13T09:29:17;39.30;;;16.03;;
17510;SDS011;8873;48.818;9.422;2023-02-13T09:31:51;38.27;;;15.50;;
17510;SDS011;8873;48.818;9.422;2023-02-13T09:34:25;44.63;;;14.70;;
17510;SDS011;8873;48.818;9.422;2023-02-13T09:36:56;33.95;;;14.00;;
17510;SDS011;8873;48.818;9.422;2023-02-13T09:39:24;34.78;;;14.73;;
17510;SDS011;8873;48.818;9.422;2023-02-13T09:41:51;39.60;;;14.32;;
17510;SDS011;8873;48.818;9.422;2023-02-13T09:44:21;34.47;;;13.87;;
17510;SDS011;8873;48.818;9.422;2023-02-13T09:47:05;29.38;;;12.32;;
17510;SDS011;8873;48.818;9.422;2023-02-13T09:49:51;29.58;;;13.40;;
17510;SDS011;8873;48.818;9.422;2023-02-13T09:52:31;33.63;;;11.93;;
17510;SDS011;8873;48.818;9.422;2023-02-13T09:54:59;32.67;;;11.45;;
17510;SDS011;8873;48.818;9.422;2023-02-13T09:57:30;27.92;;;11.80;;
17510;SDS011;8873;48.818;9.422;2023-02-13T10:00:02;31.67;;;11.55;;
17510;SDS011;8873;48.818;9.422;2023-02-13T10:02:41;20.70;;;9.15;;
17510;SDS011;8873;48.818;9.422;2023-02-13T10:05:16;21.85;;;9.88;;
17510;SDS011;8873;48.818;9.422;2023-02-13T10:07:51;21.30;;;9.35;;
17510;SDS011;8873;48.818;9.422;2023-02-13T10:10:22;17.52;;;8.65;;
17510;SDS011;8873;48.818;9.422;2023-02-13T10:12:55;17.50;;;8.50;;
17510;SDS011;8873;48.818;9.422;2023-02-13T10:15:27;20.60;;;9.43;;
17510;SDS011;8873;48.818;9.422;2023-02-13T10:17:57;16.45;;;8.20;;
17510;SDS011;8873;48.818;9.422;2023-02-13T10:20:27;15.95;;;7.72;;
17510;SDS011;8873;48.818;9.422;2023-02-13T10:23:01;13.65;;;7.80;;
17510;SDS011;8873;48.818;9.422;2023-02-13T10:25:32;14.50;;;8.23;;
17510;SDS011;8873;48.818;9.422;2023-02-13T10:28:11;11.65;;;7.03;;
17510;SDS011;8873;48.818;9.422;2023-02-13T10:30:42;16.02;;;7.78;;
17510;SDS011;8873;48.818;9.422;2023-02-13T10:33:14;15.40;;;7.30;;
17510;SDS011;8873;48.818;9.422;2023-02-13T10:35:47;13.20;;;7.60;;
17510;SDS011;8873;48.818;9.422;2023-02-13T10:38:23;11.40;;;6.55;;
17510;SDS011;8873;48.818;9.422;2023-02-13T10:43:37;11.23;;;6.60;;
17510;SDS011;8873;48.818;9.422;2023-02-13T10:46:11;14.63;;;7.53;;
17510;SDS011;8873;48.818;9.422;2023-02-13T10:48:45;12.88;;;8.00;;
17510;SDS011;8873;48.818;9.422;2023-02-13T10:51:25;13.40;;;7.53;;
17510;SDS011;8873;48.818;9.422;2023-02-13T10:53:58;12.88;;;7.53;;
17510;SDS011;8873;48.818;9.422;2023-02-13T10:56:32;14.93;;;7.20;;
17510;SDS011;8873;48.818;9.422;2023-02-13T10:59:16;13.20;;;6.78;;
17510;SDS011;8873;48.818;9.422;2023-02-13T11:01:51;14.07;;;7.57;;
17510;SDS011;8873;48.818;9.422;2023-02-13T11:04:20;14.20;;;7.30;;
17510;SDS011;8873;48.818;9.422;2023-02-13T11:06:50;13.00;;;7.63;;
17510;SDS011;8873;48.818;9.422;2023-02-13T11:09:20;12.98;;;7.45;;
17510;SDS011;8873;48.818;9.422;2023-02-13T11:11:47;11.00;;;6.93;;
17510;SDS011;8873;48.818;9.422;2023-02-13T11:14:16;11.77;;;6.90;;
17510;SDS011;8873;48.818;9.422;2023-02-13T11:16:52;10.60;;;6.65;;
17510;SDS011;8873;48.818;9.422;2023-02-13T11:19:28;10.57;;;6.70;;
17510;SDS011;8873;48.818;9.422;2023-02-13T11:21:57;11.32;;;6.75;;
17510;SDS011;8873;48.818;9.422;2023-02-13T11:24:26;11.43;;;7.13;;
17510;SDS011;8873;48.818;9.422;2023-02-13T11:26:57;9.32;;;6.65;;
17510;SDS011;8873;48.818;9.422;2023-02-13T11:29:25;10.52;;;6.60;;
17510;SDS011;8873;48.818;9.422;2023-02-13T11:32:01;9.63;;;6.95;;
17510;SDS011;8873;48.818;9.422;2023-02-13T11:34:29;8.05;;;6.07;;
17510;SDS011;8873;48.818;9.422;2023-02-13T11:37:06;10.00;;;5.78;;
17510;SDS011;8873;48.818;9.422;2023-02-13T11:39:41;8.40;;;5.68;;
17510;SDS011;8873;48.818;9.422;2023-02-13T11:42:11;9.43;;;6.70;;
17510;SDS011;8873;48.818;9.422;2023-02-13T11:44:40;7.38;;;5.53;;
17510;SDS011;8873;48.818;9.422;2023-02-13T11:47:07;8.30;;;5.85;;
17510;SDS011;8873;48.818;9.422;2023-02-13T11:49:36;7.90;;;5.88;;
17510;SDS011;8873;48.818;9.422;2023-02-13T11:52:05;8.90;;;6.25;;
17510;SDS011;8873;48.818;9.422;2023-02-13T11:54:34;8.68;;;6.05;;
17510;SDS011;8873;48.818;9.422;2023-02-13T11:57:16;7.85;;;5.22;;
17510;SDS011;8873;48.818;9.422;2023-02-13T11:59:45;8.77;;;5.57;;
17510;SDS011;8873;48.818;9.422;2023-02-13T12:02:14;8.35;;;5.80;;
17510;SDS011;8873;48.818;9.422;2023-02-13T12:04:42;8.07;;;5.82;;
17510;SDS011;8873;48.818;9.422;2023-02-13T12:07:15;7.13;;;5.45;;
17510;SDS011;8873;48.818;9.422;2023-02-13T12:09:44;6.82;;;5.70;;
17510;SDS011;8873;48.818;9.422;2023-02-13T12:12:14;7.20;;;5.78;;
17510;SDS011;8873;48.818;9.422;2023-02-13T12:14:44;7.63;;;5.22;;
17510;SDS011;8873;48.818;9.422;2023-02-13T12:17:12;9.55;;;5.90;;
17510;SDS011;8873;48.818;9.422;2023-02-13T12:19:56;9.02;;;5.43;;
17510;SDS011;8873;48.818;9.422;2023-02-13T12:25:27;6.60;;;5.28;;
17510;SDS011;8873;48.818;9.422;2023-02-13T12:28:09;7.07;;;6.05;;
17510;SDS011;8873;48.818;9.422;2023-02-13T12:30:54;8.63;;;6.38;;
17510;SDS011;8873;48.818;9.422;2023-02-13T12:33:30;7.85;;;5.95;;
17510;SDS011;8873;48.818;9.422;2023-02-13T12:36:05;7.00;;;5.60;;
17510;SDS011;8873;48.818;9.422;2023-02-13T12:38:43;8.82;;;6.10;;
17510;SDS011;8873;48.818;9.422;2023-02-13T12:41:14;6.30;;;5.57;;
17510;SDS011;8873;48.818;9.422;2023-02-13T12:43:50;8.70;;;6.43;;
17510;SDS011;8873;48.818;9.422;2023-02-13T12:46:25;7.90;;;5.97;;
17510;SDS011;8873;48.818;9.422;2023-02-13T12:48:57;8.32;;;6.05;;
17510;SDS011;8873;48.818;9.422;2023-02-13T12:51:30;7.85;;;6.25;;
17510;SDS011;8873;48.818;9.422;2023-02-13T12:54:03;7.07;;;5.80;;
17510;SDS011;8873;48.818;9.422;2023-02-13T12:56:37;9.00;;;6.07;;
17510;SDS011;8873;48.818;9.422;2023-02-13T12:59:08;7.28;;;5.57;;
17510;SDS011;8873;48.818;9.422;2023-02-13T13:01:44;9.50;;;6.15;;
17510;SDS011;8873;48.818;9.422;2023-02-13T13:04:16;10.85;;;6.72;;
17510;SDS011;8873;48.818;9.422;2023-02-13T13:06:53;6.75;;;5.90;;
17510;SDS011;8873;48.818;9.422;2023-02-13T13:12:16;7.65;;;6.03;;
17510;SDS011;8873;48.818;9.422;2023-02-13T13:14:51;8.52;;;6.30;;
17510;SDS011;8873;48.818;9.422;2023-02-13T13:17:24;8.55;;;6.05;;
17510;SDS011;8873;48.818;9.422;2023-02-13T13:19:55;7.78;;;6.05;;
17510;SDS011;8873;48.818;9.422;2023-02-13T13:22:26;7.35;;;6.00;;
17510;SDS011;8873;48.818;9.422;2023-02-13T13:24:58;8.95;;;6.10;;
17510;SDS011;8873;48.818;9.422;2023-02-13T13:27:29;7.70;;;5.93;;
17510;SDS011;8873;48.818;9.422;2023-02-13T13:29:58;8.50;;;6.25;;
17510;SDS011;8873;48.818;9.422;2023-02-13T13:32:28;7.53;;;6.22;;
17510;SDS011;8873;48.818;9.422;2023-02-13T13:34:56;8.63;;;5.95;;
17510;SDS011;8873;48.818;9.422;2023-02-13T13:37:27;7.25;;;6.03;;
17510;SDS011;8873;48.818;9.422;2023-02-13T13:39:56;8.27;;;6.45;;
17510;SDS011;8873;48.818;9.422;2023-02-13T13:42:26;7.32;;;5.88;;
17510;SDS011;8873;48.818;9.422;2023-02-13T13:45:08;7.05;;;5.25;;
17510;SDS011;8873;48.818;9.422;2023-02-13T13:47:46;8.32;;;5.82;;
17510;SDS011;8873;48.818;9.422;2023-02-13T13:50:19;7.95;;;5.72;;
17510;SDS011;8873;48.818;9.422;2023-02-13T13:53:07;9.85;;;6.05;;
17510;SDS011;8873;48.818;9.422;2023-02-13T13:58:21;8.60;;;6.05;;
17510;SDS011;8873;48.818;9.422;2023-02-13T14:03:36;7.25;;;5.80;;
17510;SDS011;8873;48.818;9.422;2023-02-13T14:06:05;8.32;;;6.10;;
17510;SDS011;8873;48.818;9.422;2023-02-13T14:08:52;7.57;;;5.80;;
17510;SDS011;8873;48.818;9.422;2023-02-13T14:11:28;8.73;;;6.22;;
17510;SDS011;8873;48.818;9.422;2023-02-13T14:13:56;8.30;;;6.00;;
17510;SDS011;8873;48.818;9.422;2023-02-13T14:16:36;9.85;;;6.28;;
17510;SDS011;8873;48.818;9.422;2023-02-13T14:19:06;9.15;;;5.72;;
17510;SDS011;8873;48.818;9.422;2023-02-13T14:21:48;7.68;;;5.63;;
17510;SDS011;8873;48.818;9.422;2023-02-13T14:24:17;7.30;;;5.80;;
17510;SDS011;8873;48.818;9.422;2023-02-13T14:26:48;8.05;;;5.65;;
17510;SDS011;8873;48.818;9.422;2023-02-13T14:29:30;10.38;;;6.07;;
17510;SDS011;8873;48.818;9.422;2023-02-13T14:31:59;10.70;;;6.72;;
17510;SDS011;8873;48.818;9.422;2023-02-13T14:34:30;7.43;;;6.03;;
17510;SDS011;8873;48.818;9.422;2023-02-13T14:37:01;11.75;;;6.63;;
17510;SDS011;8873;48.818;9.422;2023-02-13T14:39:32;10.98;;;6.45;;
17510;SDS011;8873;48.818;9.422;2023-02-13T14:42:00;7.75;;;6.18;;
17510;SDS011;8873;48.818;9.422;2023-02-13T14:44:30;8.73;;;6.25;;
17510;SDS011;8873;48.818;9.422;2023-02-13T14:46:59;11.00;;;6.40;;
17510;SDS011;8873;48.818;9.422;2023-02-13T14:49:28;7.68;;;5.50;;
17510;SDS011;8873;48.818;9.422;2023-02-13T14:51:58;9.85;;;6.15;;
17510;SDS011;8873;48.818;9.422;2023-02-13T14:54:28;9.38;;;5.72;;
17510;SDS011;8873;48.818;9.422;2023-02-13T14:56:59;8.18;;;5.82;;
17510;SDS011;8873;48.818;9.422;2023-02-13T14:59:31;9.93;;;6.07;;
17510;SDS011;8873;48.818;9.422;2023-02-13T15:02:06;11.25;;;6.03;;
17510;SDS011;8873;48.818;9.422;2023-02-13T15:04:41;9.55;;;5.93;;
17510;SDS011;8873;48.818;9.422;2023-02-13T15:07:14;9.32;;;5.93;;
17510;SDS011;8873;48.818;9.422;2023-02-13T15:09:44;9.45;;;6.30;;
17510;SDS011;8873;48.818;9.422;2023-02-13T15:12:29;9.27;;;6.13;;
17510;SDS011;8873;48.818;9.422;2023-02-13T15:14:57;9.50;;;5.95;;
17510;SDS011;8873;48.818;9.422;2023-02-13T15:17:26;10.15;;;6.68;;
17510;SDS011;8873;48.818;9.422;2023-02-13T15:19:57;10.23;;;6.03;;
17510;SDS011;8873;48.818;9.422;2023-02-13T15:22:28;11.02;;;6.25;;
17510;SDS011;8873;48.818;9.422;2023-02-13T15:24:57;11.75;;;6.28;;
17510;SDS011;8873;48.818;9.422;2023-02-13T15:27:26;14.18;;;6.03;;